Time;durP1;ratioP1;P1;durP2;ratioP2;P2;SDS_P1;SDS_P2;PMS_P1;PMS_P2;Temp;Humidity;BMP_temperature;BMP_pressure;BME280_temperature;BME280_humidity;BME280_pressure;Samples;Min_cycle;Max_cycle;Signal;HPM_P1;HPM_P2
2021/07/27 00:03:04;;;;;;;7.30;5.83;;;;;;;18.21;100.00;98873.69;10460339;28;20205;-75
2021/07/27 00:08:23;;;;;;;7.10;6.50;;;;;;;18.14;100.00;98873.94;10427915;28;20176;-75
2021/07/27 00:13:42;;;;;;;6.50;5.90;;;;;;;18.15;100.00;98869.91;10418587;28;20184;-77
2021/07/27 00:19:01;;;;;;;7.13;6.17;;;;;;;18.19;100.00;98865.78;10419749;28;20211;-75
2021/07/27 00:24:25;;;;;;;6.07;5.57;;;;;;;18.07;100.00;98861.03;10404906;28;20176;-76
2021/07/27 00:29:45;;;;;;;6.33;5.73;;;;;;;18.07;100.00;98854.72;10402484;28;20224;-76
2021/07/27 00:35:04;;;;;;;6.47;5.93;;;;;;;17.90;100.00;98853.34;10404459;28;20613;-76
2021/07/27 00:40:23;;;;;;;8.20;7.40;;;;;;;17.93;100.00;98846.91;10456414;28;20203;-76
2021/07/27 00:45:43;;;;;;;7.93;7.10;;;;;;;17.77;100.00;98850.63;10459035;28;20215;-76
2021/07/27 00:51:02;;;;;;;6.03;5.63;;;;;;;17.65;100.00;98848.66;10460106;28;20637;-77
2021/07/27 00:56:22;;;;;;;8.10;6.50;;;;;;;17.68;100.00;98847.78;10459696;28;20556;-77
2021/07/27 01:01:41;;;;;;;6.37;5.87;;;;;;;17.67;100.00;98851.78;10458549;28;20581;-76
2021/07/27 01:07:00;;;;;;;9.13;6.43;;;;;;;17.58;100.00;98839.03;10449604;28;20176;-75
2021/07/27 01:12:19;;;;;;;7.87;7.17;;;;;;;17.52;100.00;98838.06;10418096;28;20259;-76
2021/07/27 01:17:38;;;;;;;7.23;6.53;;;;;;;17.49;100.00;98838.94;10401495;28;20659;-77
2021/07/27 01:39:50;;;;;;;8.53;6.93;;;;;;;17.28;100.00;98839.69;10448535;28;20207;-76
2021/07/27 01:45:12;;;;;;;7.70;6.30;;;;;;;17.13;100.00;98847.72;10456047;28;20175;-77
2021/07/27 01:50:31;;;;;;;7.30;6.60;;;;;;;17.02;100.00;98840.94;10457696;28;20179;-76
2021/07/27 01:55:50;;;;;;;11.60;6.40;;;;;;;16.92;100.00;98844.88;10457351;28;20192;-76
2021/07/27 02:01:10;;;;;;;7.07;6.47;;;;;;;16.94;100.00;98845.97;10455416;28;20211;-76
2021/07/27 02:06:29;;;;;;;7.73;6.90;;;;;;;17.03;100.00;98850.84;10449573;28;20298;-76
2021/07/27 02:11:53;;;;;;;7.10;6.50;;;;;;;16.90;100.00;98850.88;10415978;28;20176;-76
2021/07/27 02:17:12;;;;;;;8.10;7.27;;;;;;;16.88;100.00;98852.53;10399343;28;20204;-76
2021/07/27 02:22:36;;;;;;;9.30;6.80;;;;;;;16.90;100.00;98859.19;10400624;28;20173;-76
2021/07/27 02:27:59;;;;;;;8.10;6.87;;;;;;;16.83;100.00;98853.13;10415242;28;20180;-77
2021/07/27 02:33:22;;;;;;;7.37;6.77;;;;;;;16.82;100.00;98857.09;10414036;28;20548;-77
2021/07/27 02:38:41;;;;;;;6.93;6.33;;;;;;;16.76;100.00;98858.09;10439867;28;20662;-77
2021/07/27 02:44:01;;;;;;;6.77;6.17;;;;;;;16.74;100.00;98860.53;10440053;28;20175;-76
2021/07/27 02:49:20;;;;;;;9.60;7.33;;;;;;;16.67;100.00;98860.78;10456086;28;20618;-76
2021/07/27 02:54:40;;;;;;;7.67;6.90;;;;;;;16.62;100.00;98864.88;10445629;28;20191;-76
2021/07/27 03:00:00;;;;;;;11.00;6.77;;;;;;;16.53;100.00;98866.78;10462724;28;20577;-76
2021/07/27 03:05:20;;;;;;;11.03;7.47;;;;;;;16.49;100.00;98866.88;10463753;28;20175;-75
2021/07/27 03:10:39;;;;;;;9.03;7.03;;;;;;;16.45;100.00;98871.75;10422704;28;20187;-76
2021/07/27 03:15:58;;;;;;;12.50;8.07;;;;;;;16.41;100.00;98873.88;10421181;28;20184;-76
2021/07/27 03:21:18;;;;;;;10.20;8.20;;;;;;;16.43;100.00;98878.97;10421648;28;20572;-76
2021/07/27 03:26:37;;;;;;;15.67;9.47;;;;;;;16.42;100.00;98871.88;10421724;28;20215;-77
2021/07/27 03:31:59;;;;;;;17.60;8.43;;;;;;;16.40;100.00;98883.44;10405448;28;20223;-76
2021/07/27 03:37:18;;;;;;;8.73;7.80;;;;;;;16.37;100.00;98872.44;10437410;28;20203;-77
2021/07/27 03:42:37;;;;;;;9.70;8.70;;;;;;;16.42;100.00;98866.31;10462687;28;20179;-77
2021/07/27 03:47:56;;;;;;;10.90;8.50;;;;;;;16.45;100.00;98871.00;10461491;28;20199;-77
2021/07/27 03:53:20;;;;;;;9.77;8.77;;;;;;;16.41;100.00;98867.53;10462135;28;20188;-77
2021/07/27 03:58:43;;;;;;;9.80;8.80;;;;;;;16.33;100.00;98880.06;10445542;28;20214;-76
2021/07/27 04:04:04;;;;;;;8.10;7.30;;;;;;;16.30;100.00;98878.97;10454768;28;20180;-77
2021/07/27 04:09:30;;;;;;;8.70;7.37;;;;;;;16.26;100.00;98886.59;10405653;28;20642;-76
2021/07/27 04:14:48;;;;;;;13.63;7.50;;;;;;;16.19;100.00;98897.88;10404119;28;20271;-76
2021/07/27 04:20:08;;;;;;;10.20;8.80;;;;;;;16.22;100.00;98893.47;10419567;28;20203;-75
2021/07/27 04:25:28;;;;;;;9.50;8.50;;;;;;;16.27;100.00;98898.47;10420138;28;20176;-77
2021/07/27 04:30:48;;;;;;;12.37;8.60;;;;;;;16.39;100.00;98906.09;10418112;28;20224;-77
2021/07/27 04:36:10;;;;;;;11.53;8.17;;;;;;;16.52;100.00;98904.88;10426777;28;20542;-76
2021/07/27 04:41:30;;;;;;;7.87;7.07;;;;;;;16.66;100.00;98895.31;10445367;28;20175;-77
2021/07/27 04:46:49;;;;;;;10.00;7.60;;;;;;;16.78;100.00;98893.34;10443878;28;20571;-76
2021/07/27 04:52:09;;;;;;;11.00;6.90;;;;;;;16.74;100.00;98893.88;10459913;28;20191;-76
2021/07/27 04:57:28;;;;;;;12.80;7.63;;;;;;;16.77;100.00;98891.00;10459730;28;20286;-76
2021/07/27 05:02:47;;;;;;;7.23;6.63;;;;;;;16.89;100.00;98895.78;10458578;28;20187;-78
2021/07/27 05:08:06;;;;;;;9.20;8.20;;;;;;;16.91;100.00;98883.00;10420419;28;20187;-77
2021/07/27 05:13:25;;;;;;;7.70;7.00;;;;;;;17.03;100.00;98876.66;10417835;28;20175;-76
2021/07/27 05:18:43;;;;;;;8.83;7.33;;;;;;;17.17;100.00;98870.63;10402289;28;20204;-76
2021/07/27 05:24:03;;;;;;;9.00;7.40;;;;;;;17.27;100.00;98877.03;10402806;28;20176;-77
2021/07/27 05:29:23;;;;;;;8.63;6.87;;;;;;;17.43;100.00;98869.38;10415770;28;20231;-76
2021/07/27 05:34:42;;;;;;;9.90;7.03;;;;;;;17.71;100.00;98876.69;10414883;28;20262;-76
2021/07/27 05:40:03;;;;;;;7.57;6.93;;;;;;;17.93;100.00;98869.94;10457687;28;20211;-76
2021/07/27 05:45:22;;;;;;;9.53;6.70;;;;;;;18.23;100.00;98876.81;10441718;28;20626;-75
2021/07/27 05:50:41;;;;;;;7.40;6.70;;;;;;;18.53;100.00;98874.81;10457851;28;20187;-76
2021/07/27 05:56:00;;;;;;;10.77;6.10;;;;;;;18.77;100.00;98864.69;10457771;28;20261;-77
2021/07/27 06:01:18;;;;;;;7.00;6.00;;;;;;;19.13;100.00;98873.22;10440578;28;20713;-76
2021/07/27 06:06:38;;;;;;;6.90;6.27;;;;;;;19.52;100.00;98873.13;10428185;28;20220;-77
2021/07/27 06:11:57;;;;;;;6.20;5.60;;;;;;;19.56;100.00;98876.53;10403996;28;20187;-76
2021/07/27 06:17:16;;;;;;;9.17;5.63;;;;;;;19.54;100.00;98873.44;10439071;28;20211;-76
2021/07/27 06:22:35;;;;;;;6.73;6.03;;;;;;;19.84;99.80;98882.91;10441315;28;20167;-78
2021/07/27 06:27:54;;;;;;;5.53;4.87;;;;;;;20.30;98.65;98880.38;10443970;28;20207;-77
2021/07/27 06:33:12;;;;;;;6.20;5.07;;;;;;;20.40;95.70;98873.53;10399368;28;20698;-77
2021/07/27 06:38:32;;;;;;;6.40;5.20;;;;;;;20.44;92.20;98879.72;10414767;28;20215;-76
2021/07/27 06:43:51;;;;;;;7.30;6.60;;;;;;;20.83;90.35;98878.72;10414869;28;20184;-76
2021/07/27 06:49:10;;;;;;;5.80;5.30;;;;;;;21.04;88.35;98874.88;10400062;28;20176;-77
2021/07/27 06:54:29;;;;;;;6.10;5.50;;;;;;;21.22;86.09;98880.38;10410938;28;20191;-76
2021/07/27 06:59:48;;;;;;;6.37;5.50;;;;;;;21.83;84.67;98886.06;10454171;28;20203;-76
2021/07/27 07:05:08;;;;;;;6.53;6.03;;;;;;;21.56;84.99;98907.88;10455818;28;20183;-76
2021/07/27 07:10:27;;;;;;;8.27;6.43;;;;;;;21.45;83.53;98902.75;10440655;28;20183;-76
2021/07/27 07:15:46;;;;;;;11.03;6.50;;;;;;;21.47;81.36;98902.31;10454213;28;20171;-77
2021/07/27 07:21:06;;;;;;;9.70;5.93;;;;;;;21.99;79.88;98914.38;10434738;28;20207;-77
2021/07/27 07:26:25;;;;;;;8.47;7.47;;;;;;;21.52;78.37;98902.44;10439694;28;20195;-77
2021/07/27 07:31:44;;;;;;;7.73;7.03;;;;;;;21.61;78.25;98907.97;10453452;28;20701;-76
2021/07/27 07:37:06;;;;;;;40.97;26.50;;;;;;;21.55;79.53;98921.09;10412449;28;20601;-76
2021/07/27 07:42:25;;;;;;;8.83;7.17;;;;;;;21.37;78.50;98917.59;10406080;28;20176;-77
2021/07/27 07:47:44;;;;;;;7.77;7.00;;;;;;;21.63;77.99;98915.91;10405246;28;20176;-77
2021/07/27 07:53:04;;;;;;;8.17;7.37;;;;;;;22.08;76.57;98919.91;10405964;28;20219;-77
2021/07/27 07:58:23;;;;;;;8.00;7.20;;;;;;;22.23;73.47;98915.09;10420782;28;20239;-77
2021/07/27 08:03:42;;;;;;;8.50;7.70;;;;;;;22.58;72.53;98921.63;10420869;28;20271;-76
2021/07/27 08:09:01;;;;;;;7.53;6.80;;;;;;;22.37;74.02;98928.41;10420777;28;20184;-77
2021/07/27 08:14:23;;;;;;;8.73;7.93;;;;;;;22.01;73.69;98928.69;10404218;28;20175;-78
2021/07/27 08:19:42;;;;;;;8.30;7.50;;;;;;;21.84;75.94;98938.00;10419942;28;20208;-77
2021/07/27 08:25:01;;;;;;;7.23;6.47;;;;;;;22.74;72.53;98938.75;10404987;28;20180;-77
2021/07/27 08:30:20;;;;;;;7.20;6.60;;;;;;;23.00;70.15;98936.88;10403487;28;20310;-77
2021/07/27 08:35:39;;;;;;;7.57;6.97;;;;;;;22.35;72.06;98922.50;10435227;28;20267;-77
2021/07/27 08:41:00;;;;;;;8.70;6.60;;;;;;;23.76;68.81;98928.13;10444832;28;20211;-76
2021/07/27 08:46:20;;;;;;;6.50;6.10;;;;;;;23.86;67.14;98938.72;10444203;28;20176;-77
2021/07/27 08:51:39;;;;;;;10.10;7.57;;;;;;;23.99;65.43;98936.31;10444013;28;20254;-76
2021/07/27 08:57:08;;;;;;;7.10;6.50;;;;;;;23.29;68.43;98950.13;10444403;28;20638;-77
2021/07/27 09:02:29;;;;;;;6.83;6.00;;;;;;;23.42;68.73;98940.88;10458500;28;20172;-77
2021/07/27 09:07:48;;;;;;;7.90;6.93;;;;;;;23.80;67.66;98939.91;10457853;28;20214;-76
2021/07/27 09:13:09;;;;;;;6.80;6.20;;;;;;;24.19;65.79;98927.88;10444286;28;20179;-77
2021/07/27 09:18:30;;;;;;;7.40;6.70;;;;;;;24.42;61.91;98938.09;10458151;28;20203;-77
2021/07/27 09:23:50;;;;;;;26.90;7.47;;;;;;;23.73;64.56;98932.66;10443982;28;20179;-77
2021/07/27 09:29:09;;;;;;;6.90;6.30;;;;;;;24.26;60.74;98949.94;10457186;28;20215;-77
2021/07/27 09:34:28;;;;;;;8.53;6.63;;;;;;;23.71;63.10;98940.78;10433342;28;20180;-77
2021/07/27 09:39:47;;;;;;;8.53;6.60;;;;;;;24.26;61.70;98949.94;10416806;28;20302;-78
2021/07/27 09:45:06;;;;;;;7.27;6.60;;;;;;;24.23;62.04;98948.13;10400896;28;20180;-77
2021/07/27 09:50:25;;;;;;;7.20;6.53;;;;;;;24.84;60.63;98950.28;10401640;28;20234;-77
2021/07/27 09:55:45;;;;;;;8.27;7.20;;;;;;;24.57;60.25;98947.22;10416587;28;20180;-77
2021/07/27 10:01:22;;;;;;;8.37;5.90;;;;;;;24.49;60.27;98949.72;10429863;28;20684;-75
2021/07/27 10:06:49;;;;;;;7.60;7.00;;;;;;;25.06;59.42;98950.50;10449219;28;20175;-76
2021/07/27 10:12:12;;;;;;;7.47;6.40;;;;;;;25.23;58.68;98943.00;10406820;28;20180;-77
2021/07/27 10:17:31;;;;;;;8.27;6.23;;;;;;;25.05;59.70;98946.91;10414224;28;20204;-77
2021/07/27 10:22:50;;;;;;;9.93;6.70;;;;;;;25.47;59.73;98952.63;10400929;28;20283;-76
2021/07/27 10:28:21;;;;;;;8.53;7.07;;;;;;;26.54;53.74;98954.19;10427167;28;20183;-76
2021/07/27 10:33:40;;;;;;;8.70;6.90;;;;;;;25.91;55.09;98962.13;10399781;28;20223;-77
2021/07/27 10:39:13;;;;;;;9.03;7.20;;;;;;;25.41;55.59;98963.09;10399283;28;20203;-76
2021/07/27 10:44:38;;;;;;;8.07;7.43;;;;;;;26.73;52.12;98953.19;10403269;28;20176;-76
2021/07/27 10:50:06;;;;;;;7.20;6.53;;;;;;;26.93;49.80;98948.06;10455816;28;20260;-77
2021/07/27 10:55:27;;;;;;;8.00;7.07;;;;;;;27.19;50.94;98954.28;10451018;28;20183;-75
2021/07/27 11:00:46;;;;;;;7.80;7.20;;;;;;;27.44;48.21;98941.91;10438429;28;20207;-76
2021/07/27 11:06:05;;;;;;;6.80;6.30;;;;;;;26.94;48.29;98938.31;10455614;28;20179;-76
2021/07/27 11:11:24;;;;;;;7.73;6.97;;;;;;;27.14;49.59;98934.50;10440599;28;20187;-76
2021/07/27 11:16:43;;;;;;;7.90;7.30;;;;;;;25.59;53.29;98934.53;10444081;28;20175;-76
2021/07/27 11:22:02;;;;;;;7.60;7.00;;;;;;;26.83;51.68;98927.00;10463807;28;20195;-76
2021/07/27 11:27:32;;;;;;;7.37;6.67;;;;;;;27.69;50.62;98918.25;10448500;28;20183;-76
2021/07/27 11:32:51;;;;;;;7.73;6.80;;;;;;;26.09;52.95;98915.81;10461510;28;20223;-76
2021/07/27 11:38:18;;;;;;;7.53;6.73;;;;;;;25.17;54.22;98919.63;10463158;28;20290;-76
2021/07/27 11:43:42;;;;;;;8.37;7.57;;;;;;;25.61;56.73;98920.69;10458323;28;20188;-75
2021/07/27 11:49:07;;;;;;;8.77;7.80;;;;;;;25.99;54.55;98906.81;10447506;28;20234;-75
2021/07/27 11:54:26;;;;;;;7.80;7.10;;;;;;;26.70;51.58;98903.41;10462701;28;20228;-76
2021/07/27 11:59:45;;;;;;;8.30;7.27;;;;;;;26.36;52.88;98912.28;10460524;28;20210;-76
2021/07/27 12:05:05;;;;;;;11.13;7.80;;;;;;;26.73;51.08;98899.56;10461938;28;20179;-76
2021/07/27 12:10:24;;;;;;;8.07;7.27;;;;;;;26.64;49.93;98896.97;10461732;28;20545;-76
2021/07/27 12:15:46;;;;;;;8.43;7.60;;;;;;;25.59;51.24;98900.72;10435515;28;20179;-76
2021/07/27 12:21:05;;;;;;;7.53;6.97;;;;;;;25.50;52.19;98892.47;10421416;28;20215;-76
2021/07/27 12:26:24;;;;;;;7.80;7.20;;;;;;;25.37;54.84;98885.72;10418909;28;20192;-75
2021/07/27 12:31:43;;;;;;;8.40;7.07;;;;;;;24.87;54.33;98878.19;10418123;28;20227;-76
2021/07/27 12:37:02;;;;;;;7.27;6.77;;;;;;;25.51;53.76;98859.41;10404669;28;20563;-76
2021/07/27 12:42:21;;;;;;;9.37;7.70;;;;;;;25.79;51.98;98855.47;10442776;28;20183;-77
2021/07/27 12:47:40;;;;;;;7.63;7.03;;;;;;;25.69;53.16;98856.19;10442386;28;20203;-76
2021/07/27 12:52:59;;;;;;;8.90;7.67;;;;;;;25.60;53.22;98850.75;10445358;28;20167;-76
2021/07/27 12:58:18;;;;;;;8.70;7.50;;;;;;;25.28;54.54;98846.50;10442769;28;20673;-76
2021/07/27 13:03:37;;;;;;;8.37;7.60;;;;;;;25.50;52.28;98838.16;10459836;28;20171;-76
2021/07/27 13:08:59;;;;;;;8.83;7.93;;;;;;;25.81;53.01;98833.19;10459254;28;20492;-75
2021/07/27 13:14:18;;;;;;;7.70;7.20;;;;;;;26.26;51.75;98820.72;10458008;28;20254;-76
2021/07/27 13:19:38;;;;;;;8.53;7.63;;;;;;;26.25;53.35;98810.75;10443843;28;20242;-76
2021/07/27 13:24:58;;;;;;;7.87;7.03;;;;;;;26.22;50.79;98798.41;10458911;28;20629;-75
2021/07/27 13:30:17;;;;;;;9.60;6.97;;;;;;;26.09;50.59;98817.13;10456800;28;20223;-75
2021/07/27 13:35:37;;;;;;;10.00;7.23;;;;;;;26.64;49.97;98810.28;10458438;28;20262;-77
2021/07/27 13:40:56;;;;;;;9.77;6.80;;;;;;;26.86;49.85;98804.59;10457866;28;20207;-76
2021/07/27 13:46:14;;;;;;;7.87;6.70;;;;;;;26.70;48.64;98798.97;10456823;28;20624;-76
2021/07/27 13:51:33;;;;;;;6.57;6.13;;;;;;;26.73;49.62;98801.56;10457852;28;20230;-76
2021/07/27 13:56:52;;;;;;;7.10;6.50;;;;;;;26.76;47.07;98799.75;10442467;28;20167;-76
2021/07/27 14:02:11;;;;;;;7.13;6.63;;;;;;;26.88;47.80;98793.56;10415254;28;20172;-75
2021/07/27 14:07:33;;;;;;;7.20;6.60;;;;;;;26.98;48.64;98797.63;10416283;28;20562;-75
2021/07/27 14:12:52;;;;;;;6.60;6.10;;;;;;;26.76;48.69;98791.28;10401149;28;20176;-75
2021/07/27 14:18:11;;;;;;;6.50;6.00;;;;;;;26.88;47.67;98793.56;10399566;28;20216;-75
2021/07/27 14:23:30;;;;;;;6.37;5.80;;;;;;;26.66;48.14;98785.09;10415698;28;20266;-76
2021/07/27 14:28:49;;;;;;;6.90;6.30;;;;;;;26.04;49.80;98786.88;10411389;28;20215;-75
2021/07/27 14:34:08;;;;;;;6.37;5.77;;;;;;;26.64;48.52;98773.59;10456034;28;20191;-75
2021/07/27 14:39:27;;;;;;;6.90;6.17;;;;;;;26.95;49.49;98780.97;10456047;28;20207;-76
2021/07/27 14:44:46;;;;;;;7.40;6.80;;;;;;;26.67;47.58;98771.78;10439838;28;20175;-76
2021/07/27 14:50:07;;;;;;;6.17;5.67;;;;;;;26.98;47.66;98760.16;10455517;28;20203;-76
2021/07/27 14:55:26;;;;;;;8.77;5.97;;;;;;;27.14;47.85;98742.44;10455990;28;20183;-76
2021/07/27 15:00:45;;;;;;;13.63;6.03;;;;;;;28.12;45.25;98735.47;10422628;28;20219;-76
2021/07/27 15:06:04;;;;;;;6.93;6.37;;;;;;;28.05;46.80;98730.41;10414543;28;20192;-77
2021/07/27 15:11:23;;;;;;;5.37;4.87;;;;;;;28.32;43.70;98733.03;10414016;28;20172;-77
2021/07/27 15:16:42;;;;;;;6.23;5.70;;;;;;;28.38;43.85;98717.53;10412564;28;20176;-76
2021/07/27 15:22:00;;;;;;;6.30;5.70;;;;;;;27.51;46.25;98729.44;10399136;28;20263;-76
2021/07/27 15:27:19;;;;;;;5.67;5.37;;;;;;;26.72;47.55;98723.78;10415270;28;20184;-76
2021/07/27 15:32:38;;;;;;;9.93;5.90;;;;;;;27.56;46.03;98712.44;10412111;28;20588;-77
2021/07/27 15:37:57;;;;;;;5.80;5.30;;;;;;;27.39;45.53;98727.19;10413963;28;20207;-76
2021/07/27 15:43:16;;;;;;;10.07;5.27;;;;;;;27.56;45.58;98722.97;10398945;28;20184;-76
2021/07/27 15:48:35;;;;;;;5.77;5.37;;;;;;;28.01;45.51;98715.78;10398498;28;20263;-76
2021/07/27 15:53:54;;;;;;;5.33;5.03;;;;;;;28.31;43.98;98715.31;10413844;28;20180;-76
2021/07/27 15:59:14;;;;;;;6.27;5.67;;;;;;;28.41;45.47;98719.34;10398050;28;20208;-76
2021/07/27 16:04:33;;;;;;;5.80;5.30;;;;;;;27.73;45.74;98726.50;10420496;28;20893;-76
2021/07/27 16:09:52;;;;;;;6.20;5.70;;;;;;;27.09;46.14;98718.56;10420732;28;20180;-76
2021/07/27 16:15:11;;;;;;;6.43;5.93;;;;;;;26.72;47.59;98704.03;10404183;28;20545;-76
2021/07/27 16:20:30;;;;;;;6.27;5.87;;;;;;;27.49;44.95;98698.88;10420782;28;20203;-76
2021/07/27 16:25:49;;;;;;;6.23;5.83;;;;;;;27.11;46.81;98713.19;10461355;28;20605;-75
2021/07/27 16:31:08;;;;;;;6.93;6.30;;;;;;;27.04;47.43;98708.06;10444348;28;20223;-76
2021/07/27 16:36:27;;;;;;;6.10;5.50;;;;;;;27.51;45.53;98684.97;10445727;28;20187;-77
2021/07/27 16:41:46;;;;;;;6.27;5.70;;;;;;;27.38;46.59;98686.88;10445037;28;20744;-76
2021/07/27 16:47:05;;;;;;;8.93;5.30;;;;;;;26.65;47.28;98681.97;10443999;28;20586;-76
2021/07/27 16:52:25;;;;;;;6.10;5.70;;;;;;;27.31;46.01;98669.69;10428060;28;20188;-76
2021/07/27 16:57:44;;;;;;;6.37;5.87;;;;;;;26.65;47.64;98667.09;10403734;28;20208;-77
2021/07/27 17:03:03;;;;;;;7.07;6.40;;;;;;;26.74;48.37;98669.66;10417711;28;20188;-77
2021/07/27 17:08:22;;;;;;;6.00;5.60;;;;;;;26.49;49.76;98659.44;10418472;28;20180;-76
2021/07/27 17:13:41;;;;;;;6.13;5.13;;;;;;;27.05;46.59;98658.78;10401595;28;20259;-75
2021/07/27 17:19:00;;;;;;;5.70;5.20;;;;;;;27.16;47.26;98652.31;10420808;28;20215;-76
2021/07/27 17:24:19;;;;;;;6.50;5.90;;;;;;;26.81;47.32;98652.94;10459232;28;20251;-76
2021/07/27 17:29:39;;;;;;;7.30;5.87;;;;;;;26.63;47.81;98653.53;10442312;28;20219;-77
2021/07/27 17:35:00;;;;;;;6.30;5.77;;;;;;;26.35;48.89;98649.19;10431486;28;20185;-76
2021/07/27 17:40:19;;;;;;;6.70;5.97;;;;;;;25.96;52.21;98653.31;10401848;28;20249;-76
2021/07/27 17:45:38;;;;;;;6.90;6.30;;;;;;;25.78;51.39;98644.63;10415561;28;20168;-76
2021/07/27 17:51:00;;;;;;;6.70;6.00;;;;;;;25.74;54.35;98636.38;10416881;28;20654;-76
2021/07/27 17:56:19;;;;;;;6.67;6.17;;;;;;;25.73;56.72;98639.69;10416607;28;20255;-76
2021/07/27 18:01:38;;;;;;;6.90;6.20;;;;;;;25.70;58.41;98637.91;10414647;28;20212;-76
2021/07/27 18:06:57;;;;;;;6.33;5.83;;;;;;;25.52;58.44;98635.59;10453917;28;20645;-77
2021/07/27 18:12:16;;;;;;;6.47;5.97;;;;;;;25.36;59.40;98628.63;10457214;28;20184;-76
2021/07/27 18:17:35;;;;;;;6.20;5.80;;;;;;;25.32;59.92;98635.84;10455657;28;20206;-75
2021/07/27 18:22:54;;;;;;;6.73;6.10;;;;;;;25.07;59.74;98626.25;10440967;28;20188;-76
2021/07/27 18:28:14;;;;;;;7.13;6.47;;;;;;;24.79;61.18;98624.63;10456720;28;20744;-75
2021/07/27 18:33:33;;;;;;;6.13;5.63;;;;;;;24.65;61.77;98619.97;10445213;28;20655;-75
2021/07/27 18:38:52;;;;;;;6.27;5.70;;;;;;;24.50;62.48;98632.66;10414867;28;20207;-76
2021/07/27 18:44:11;;;;;;;6.90;6.30;;;;;;;24.25;63.69;98633.50;10398619;28;20667;-75
2021/07/27 18:49:30;;;;;;;7.60;6.87;;;;;;;23.95;66.74;98631.53;10414982;28;20195;-75
2021/07/27 18:54:49;;;;;;;7.30;6.60;;;;;;;23.82;70.69;98640.34;10414884;28;20172;-75
2021/07/27 19:00:10;;;;;;;7.53;6.93;;;;;;;23.75;72.07;98640.78;10398260;28;20234;-76
2021/07/27 19:05:29;;;;;;;7.07;6.37;;;;;;;23.67;73.76;98656.50;10412914;28;20258;-75
2021/07/27 19:10:48;;;;;;;7.47;6.87;;;;;;;23.32;76.31;98662.81;10414685;28;20646;-75
2021/07/27 19:16:07;;;;;;;6.97;6.27;;;;;;;23.17;76.18;98656.53;10397968;28;20173;-75
2021/07/27 19:21:26;;;;;;;7.50;6.70;;;;;;;23.14;77.42;98658.25;10398748;28;20204;-75
2021/07/27 19:26:45;;;;;;;6.90;6.40;;;;;;;23.03;77.45;98672.19;10398982;28;20168;-75
2021/07/27 19:32:05;;;;;;;12.33;6.80;;;;;;;22.74;76.57;98669.47;10397180;28;20248;-75
2021/07/27 19:37:24;;;;;;;7.27;6.57;;;;;;;22.76;77.46;98666.22;10404836;28;20191;-75
2021/07/27 19:43:01;;;;;;;9.30;8.40;;;;;;;22.74;80.11;98661.06;10421826;28;20188;-76
2021/07/27 19:48:22;;;;;;;7.73;6.97;;;;;;;22.46;79.15;98672.41;10420206;28;20674;-76
2021/07/27 19:53:41;;;;;;;8.23;7.43;;;;;;;22.37;76.44;98684.53;10406347;28;20639;-74
2021/07/27 19:59:00;;;;;;;9.73;7.63;;;;;;;22.03;78.15;98688.06;10419618;28;20200;-76
2021/07/27 20:04:19;;;;;;;10.10;7.50;;;;;;;21.87;79.23;98677.34;10438867;28;20570;-76
2021/07/27 20:09:38;;;;;;;7.87;7.27;;;;;;;21.96;79.52;98679.25;10462182;28;20566;-75
2021/07/27 20:14:57;;;;;;;11.57;6.67;;;;;;;22.08;79.58;98650.94;10445512;28;20187;-75
2021/07/27 20:20:16;;;;;;;7.60;6.90;;;;;;;22.19;84.76;98662.31;10461257;28;20206;-75
2021/07/27 20:25:35;;;;;;;8.90;7.57;;;;;;;21.98;85.63;98666.31;10461481;28;20266;-75
2021/07/27 20:30:54;;;;;;;8.40;7.70;;;;;;;21.85;86.49;98665.06;10431142;28;20248;-75
2021/07/27 20:36:13;;;;;;;7.87;6.67;;;;;;;21.85;86.33;98656.66;10404714;28;20176;-76
2021/07/27 20:41:35;;;;;;;9.30;7.80;;;;;;;21.90;85.03;98648.34;10418901;28;20593;-75
2021/07/27 20:46:54;;;;;;;12.27;8.77;;;;;;;21.89;84.37;98644.00;10417378;28;20252;-75
2021/07/27 20:52:13;;;;;;;8.80;8.00;;;;;;;21.89;84.95;98637.66;10419241;28;20180;-75
2021/07/27 20:57:31;;;;;;;17.63;8.10;;;;;;;21.86;86.31;98644.19;10418691;28;20196;-75
2021/07/27 21:02:50;;;;;;;9.10;8.23;;;;;;;21.72;87.07;98637.38;10430645;28;20642;-75
2021/07/27 21:08:09;;;;;;;8.50;7.70;;;;;;;21.66;88.02;98626.56;10459624;28;20176;-75
2021/07/27 21:13:29;;;;;;;8.47;7.60;;;;;;;21.52;88.66;98618.91;10444352;28;20220;-75
2021/07/27 21:18:50;;;;;;;7.77;7.13;;;;;;;21.45;88.69;98624.91;10443911;28;20207;-75
2021/07/27 21:24:09;;;;;;;13.43;8.23;;;;;;;21.39;89.23;98638.03;10441928;28;20547;-75
2021/07/27 21:29:28;;;;;;;10.53;8.30;;;;;;;21.57;89.76;98649.84;10455911;28;20219;-74
2021/07/27 21:34:48;;;;;;;9.40;8.50;;;;;;;21.30;94.67;98666.88;10458816;28;20171;-75
2021/07/27 21:40:07;;;;;;;8.70;7.90;;;;;;;20.95;100.00;98679.94;10442998;28;20207;-75
2021/07/27 21:45:26;;;;;;;13.30;9.30;;;;;;;20.28;100.00;98743.19;10457114;28;20211;-76
2021/07/27 21:50:45;;;;;;;13.33;9.57;;;;;;;19.56;100.00;98775.28;10458126;28;20626;-79
2021/07/27 21:56:05;;;;;;;21.57;13.80;;;;;;;18.85;100.00;98778.78;10429627;28;20709;-78
2021/07/27 22:01:24;;;;;;;23.53;14.17;;;;;;;18.67;100.00;98740.50;10414687;28;20682;-79
2021/07/27 22:06:43;;;;;;;15.73;12.80;;;;;;;18.69;100.00;98732.44;10416202;28;20640;-81
2021/07/27 22:12:02;;;;;;;16.33;12.60;;;;;;;18.77;100.00;98750.44;10416101;28;20591;-79
2021/07/27 22:17:21;;;;;;;16.63;12.27;;;;;;;18.88;100.00;98753.56;10414493;28;20219;-77
2021/07/27 22:22:40;;;;;;;13.33;11.27;;;;;;;18.96;100.00;98748.44;10415794;28;20176;-79
2021/07/27 22:27:59;;;;;;;16.53;12.40;;;;;;;19.20;100.00;98772.53;10443468;28;20183;-79
2021/07/27 22:33:18;;;;;;;14.40;12.37;;;;;;;19.01;100.00;98804.38;10455479;28;20187;-80
2021/07/27 22:38:38;;;;;;;20.43;12.50;;;;;;;18.84;100.00;98830.97;10455711;28;20230;-82
2021/07/27 22:43:57;;;;;;;16.40;12.03;;;;;;;18.76;100.00;98818.53;10454972;28;20669;-80
2021/07/27 22:49:16;;;;;;;14.67;13.13;;;;;;;18.77;100.00;98799.84;10456097;28;20529;-83
2021/07/27 22:54:37;;;;;;;15.30;13.30;;;;;;;18.94;100.00;98782.38;10455671;28;20210;-81
2021/07/27 22:59:56;;;;;;;21.67;13.20;;;;;;;18.79;100.00;98780.63;10398195;28;20219;-83
2021/07/27 23:05:15;;;;;;;15.50;12.67;;;;;;;18.77;100.00;98771.97;10414741;28;20183;-81
2021/07/27 23:10:34;;;;;;;15.67;12.10;;;;;;;18.77;100.00;98767.16;10417531;28;20191;-83
2021/07/27 23:15:53;;;;;;;16.40;13.00;;;;;;;18.69;100.00;98749.16;10406710;28;20171;-81
2021/07/27 23:21:13;;;;;;;13.80;12.27;;;;;;;18.70;100.00;98759.09;10422421;28;20207;-81
2021/07/27 23:31:51;;;;;;;16.13;11.50;;;;;;;18.56;100.00;98745.75;10461585;28;20226;-77
2021/07/27 23:37:11;;;;;;;15.13;13.57;;;;;;;18.60;100.00;98743.56;10448262;28;20578;-77
2021/07/27 23:42:30;;;;;;;17.00;12.63;;;;;;;18.62;100.00;98748.69;10463049;28;20187;-80
2021/07/27 23:47:49;;;;;;;17.47;12.93;;;;;;;18.62;100.00;98757.03;10461573;28;20278;-77
2021/07/27 23:53:08;;;;;;;15.70;11.07;;;;;;;18.54;100.00;98744.63;10447604;28;20199;-81
2021/07/27 23:58:28;;;;;;;19.00;12.00;;;;;;;18.41;100.00;98744.75;10453209;28;20207;-78
